sensor_id;sensor_type;location;lat;lon;timestamp;P1;durP1;ratioP1;P2;durP2;ratioP2
37203;SDS011;23098;48.054;10.636;2022-08-07T00:00:32;17.77;;;14.15;;
37203;SDS011;23098;48.054;10.636;2022-08-07T00:02:59;17.77;;;14.82;;
37203;SDS011;23098;48.054;10.636;2022-08-07T00:05:24;17.17;;;14.27;;
37203;SDS011;23098;48.054;10.636;2022-08-07T00:07:51;19.63;;;15.18;;
37203;SDS011;23098;48.054;10.636;2022-08-07T00:10:17;22.15;;;16.20;;
37203;SDS011;23098;48.054;10.636;2022-08-07T00:12:43;20.13;;;16.33;;
37203;SDS011;23098;48.054;10.636;2022-08-07T00:15:08;22.25;;;16.67;;
37203;SDS011;23098;48.054;10.636;2022-08-07T00:17:35;20.48;;;15.95;;
37203;SDS011;23098;48.054;10.636;2022-08-07T00:20:01;20.63;;;16.58;;
37203;SDS011;23098;48.054;10.636;2022-08-07T00:22:27;21.90;;;16.13;;
37203;SDS011;23098;48.054;10.636;2022-08-07T00:24:52;20.25;;;15.25;;
37203;SDS011;23098;48.054;10.636;2022-08-07T00:27:18;21.70;;;16.25;;
37203;SDS011;23098;48.054;10.636;2022-08-07T00:29:43;19.10;;;15.60;;
37203;SDS011;23098;48.054;10.636;2022-08-07T00:32:09;19.60;;;15.85;;
37203;SDS011;23098;48.054;10.636;2022-08-07T00:34:36;21.83;;;16.23;;
37203;SDS011;23098;48.054;10.636;2022-08-07T00:37:02;18.92;;;16.02;;
37203;SDS011;23098;48.054;10.636;2022-08-07T00:39:28;20.80;;;15.82;;
37203;SDS011;23098;48.054;10.636;2022-08-07T00:41:57;21.05;;;16.75;;
37203;SDS011;23098;48.054;10.636;2022-08-07T00:44:24;19.92;;;16.08;;
37203;SDS011;23098;48.054;10.636;2022-08-07T00:46:50;19.52;;;15.32;;
37203;SDS011;23098;48.054;10.636;2022-08-07T00:49:16;20.58;;;16.23;;
37203;SDS011;23098;48.054;10.636;2022-08-07T00:51:41;22.85;;;16.65;;
37203;SDS011;23098;48.054;10.636;2022-08-07T00:54:07;24.27;;;16.25;;
37203;SDS011;23098;48.054;10.636;2022-08-07T00:56:34;21.40;;;17.30;;
37203;SDS011;23098;48.054;10.636;2022-08-07T00:59:00;21.80;;;17.45;;
37203;SDS011;23098;48.054;10.636;2022-08-07T01:01:26;24.48;;;18.08;;
37203;SDS011;23098;48.054;10.636;2022-08-07T01:03:52;23.67;;;17.80;;
37203;SDS011;23098;48.054;10.636;2022-08-07T01:06:18;23.00;;;17.08;;
37203;SDS011;23098;48.054;10.636;2022-08-07T01:08:44;24.50;;;18.55;;
37203;SDS011;23098;48.054;10.636;2022-08-07T01:11:11;29.52;;;18.42;;
37203;SDS011;23098;48.054;10.636;2022-08-07T01:13:37;28.10;;;19.13;;
37203;SDS011;23098;48.054;10.636;2022-08-07T01:16:04;26.88;;;19.40;;
37203;SDS011;23098;48.054;10.636;2022-08-07T01:18:31;25.35;;;17.42;;
37203;SDS011;23098;48.054;10.636;2022-08-07T01:21:13;27.77;;;18.98;;
37203;SDS011;23098;48.054;10.636;2022-08-07T01:23:48;24.63;;;17.83;;
37203;SDS011;23098;48.054;10.636;2022-08-07T01:26:15;28.33;;;17.85;;
37203;SDS011;23098;48.054;10.636;2022-08-07T01:28:44;23.85;;;18.52;;
37203;SDS011;23098;48.054;10.636;2022-08-07T01:31:12;23.63;;;17.98;;
37203;SDS011;23098;48.054;10.636;2022-08-07T01:33:39;25.48;;;18.35;;
37203;SDS011;23098;48.054;10.636;2022-08-07T01:36:05;26.35;;;19.20;;
37203;SDS011;23098;48.054;10.636;2022-08-07T01:38:33;24.35;;;18.67;;
37203;SDS011;23098;48.054;10.636;2022-08-07T01:41:00;26.65;;;18.85;;
37203;SDS011;23098;48.054;10.636;2022-08-07T01:43:28;29.75;;;18.95;;
37203;SDS011;23098;48.054;10.636;2022-08-07T01:45:54;26.13;;;19.25;;
37203;SDS011;23098;48.054;10.636;2022-08-07T01:48:22;27.08;;;20.05;;
37203;SDS011;23098;48.054;10.636;2022-08-07T01:50:50;30.92;;;19.45;;
37203;SDS011;23098;48.054;10.636;2022-08-07T01:53:20;30.88;;;20.40;;
37203;SDS011;23098;48.054;10.636;2022-08-07T01:55:50;27.30;;;20.58;;
37203;SDS011;23098;48.054;10.636;2022-08-07T01:58:22;29.20;;;20.08;;
37203;SDS011;23098;48.054;10.636;2022-08-07T02:00:53;27.30;;;19.58;;
37203;SDS011;23098;48.054;10.636;2022-08-07T02:03:23;29.20;;;20.77;;
37203;SDS011;23098;48.054;10.636;2022-08-07T02:05:57;28.33;;;19.55;;
37203;SDS011;23098;48.054;10.636;2022-08-07T02:08:26;25.88;;;19.23;;
37203;SDS011;23098;48.054;10.636;2022-08-07T02:10:54;29.27;;;19.50;;
37203;SDS011;23098;48.054;10.636;2022-08-07T02:13:24;27.55;;;19.75;;
37203;SDS011;23098;48.054;10.636;2022-08-07T02:15:52;26.08;;;19.08;;
37203;SDS011;23098;48.054;10.636;2022-08-07T02:18:18;27.35;;;20.25;;
37203;SDS011;23098;48.054;10.636;2022-08-07T02:20:47;27.50;;;19.98;;
37203;SDS011;23098;48.054;10.636;2022-08-07T02:23:16;27.77;;;19.08;;
37203;SDS011;23098;48.054;10.636;2022-08-07T02:25:43;28.98;;;19.50;;
37203;SDS011;23098;48.054;10.636;2022-08-07T02:28:11;26.35;;;19.35;;
37203;SDS011;23098;48.054;10.636;2022-08-07T02:30:38;26.38;;;19.02;;
37203;SDS011;23098;48.054;10.636;2022-08-07T02:33:06;24.77;;;19.45;;
37203;SDS011;23098;48.054;10.636;2022-08-07T02:35:33;26.80;;;19.73;;
37203;SDS011;23098;48.054;10.636;2022-08-07T02:38:00;25.52;;;17.70;;
37203;SDS011;23098;48.054;10.636;2022-08-07T02:40:28;22.55;;;17.52;;
37203;SDS011;23098;48.054;10.636;2022-08-07T02:42:55;25.92;;;17.55;;
37203;SDS011;23098;48.054;10.636;2022-08-07T02:45:23;23.45;;;17.55;;
37203;SDS011;23098;48.054;10.636;2022-08-07T02:47:51;23.17;;;17.30;;
37203;SDS011;23098;48.054;10.636;2022-08-07T02:50:17;24.60;;;17.38;;
37203;SDS011;23098;48.054;10.636;2022-08-07T02:52:44;22.88;;;16.55;;
37203;SDS011;23098;48.054;10.636;2022-08-07T02:55:20;21.77;;;15.88;;
37203;SDS011;23098;48.054;10.636;2022-08-07T02:57:47;23.95;;;16.80;;
37203;SDS011;23098;48.054;10.636;2022-08-07T03:00:15;21.35;;;15.93;;
37203;SDS011;23098;48.054;10.636;2022-08-07T03:02:41;20.85;;;15.48;;
37203;SDS011;23098;48.054;10.636;2022-08-07T03:05:10;22.48;;;15.68;;
37203;SDS011;23098;48.054;10.636;2022-08-07T03:07:37;20.23;;;15.82;;
37203;SDS011;23098;48.054;10.636;2022-08-07T03:10:04;24.65;;;16.45;;
37203;SDS011;23098;48.054;10.636;2022-08-07T03:12:31;23.08;;;16.58;;
37203;SDS011;23098;48.054;10.636;2022-08-07T03:14:57;23.10;;;16.83;;
37203;SDS011;23098;48.054;10.636;2022-08-07T03:17:23;21.13;;;16.13;;
37203;SDS011;23098;48.054;10.636;2022-08-07T03:19:50;25.10;;;16.98;;
37203;SDS011;23098;48.054;10.636;2022-08-07T03:22:17;22.25;;;15.85;;
37203;SDS011;23098;48.054;10.636;2022-08-07T03:24:44;24.33;;;16.23;;
37203;SDS011;23098;48.054;10.636;2022-08-07T03:27:09;22.00;;;14.63;;
37203;SDS011;23098;48.054;10.636;2022-08-07T03:29:39;20.85;;;14.20;;
37203;SDS011;23098;48.054;10.636;2022-08-07T03:32:10;19.30;;;13.60;;
37203;SDS011;23098;48.054;10.636;2022-08-07T03:34:37;17.63;;;12.90;;
37203;SDS011;23098;48.054;10.636;2022-08-07T03:37:03;16.38;;;12.60;;
37203;SDS011;23098;48.054;10.636;2022-08-07T03:39:30;18.58;;;12.68;;
37203;SDS011;23098;48.054;10.636;2022-08-07T03:41:58;19.67;;;12.43;;
37203;SDS011;23098;48.054;10.636;2022-08-07T03:44:24;17.63;;;12.60;;
37203;SDS011;23098;48.054;10.636;2022-08-07T03:46:50;16.60;;;12.05;;
37203;SDS011;23098;48.054;10.636;2022-08-07T03:49:17;17.92;;;12.55;;
37203;SDS011;23098;48.054;10.636;2022-08-07T03:51:43;18.23;;;12.35;;
37203;SDS011;23098;48.054;10.636;2022-08-07T03:54:08;16.27;;;11.70;;
37203;SDS011;23098;48.054;10.636;2022-08-07T03:56:34;13.98;;;11.38;;
37203;SDS011;23098;48.054;10.636;2022-08-07T03:59:03;14.73;;;10.60;;
37203;SDS011;23098;48.054;10.636;2022-08-07T04:01:29;14.93;;;10.32;;
37203;SDS011;23098;48.054;10.636;2022-08-07T04:03:56;13.45;;;9.80;;
37203;SDS011;23098;48.054;10.636;2022-08-07T04:06:22;15.60;;;9.80;;
37203;SDS011;23098;48.054;10.636;2022-08-07T04:08:48;15.45;;;9.68;;
37203;SDS011;23098;48.054;10.636;2022-08-07T04:11:15;15.63;;;9.38;;
37203;SDS011;23098;48.054;10.636;2022-08-07T04:13:41;13.48;;;9.48;;
37203;SDS011;23098;48.054;10.636;2022-08-07T04:16:07;11.43;;;8.45;;
37203;SDS011;23098;48.054;10.636;2022-08-07T04:18:32;11.85;;;8.70;;
37203;SDS011;23098;48.054;10.636;2022-08-07T04:20:58;11.90;;;8.27;;
37203;SDS011;23098;48.054;10.636;2022-08-07T04:23:24;10.65;;;7.55;;
37203;SDS011;23098;48.054;10.636;2022-08-07T04:25:51;8.15;;;6.75;;
37203;SDS011;23098;48.054;10.636;2022-08-07T04:28:17;7.80;;;7.00;;
37203;SDS011;23098;48.054;10.636;2022-08-07T04:30:47;11.07;;;7.32;;
37203;SDS011;23098;48.054;10.636;2022-08-07T04:33:14;8.63;;;7.07;;
37203;SDS011;23098;48.054;10.636;2022-08-07T04:35:42;11.10;;;7.47;;
37203;SDS011;23098;48.054;10.636;2022-08-07T04:38:09;9.35;;;7.18;;
37203;SDS011;23098;48.054;10.636;2022-08-07T04:40:38;9.35;;;6.93;;
37203;SDS011;23098;48.054;10.636;2022-08-07T04:43:05;12.23;;;7.18;;
37203;SDS011;23098;48.054;10.636;2022-08-07T04:48:23;9.55;;;6.80;;
37203;SDS011;23098;48.054;10.636;2022-08-07T04:51:08;11.30;;;7.20;;
37203;SDS011;23098;48.054;10.636;2022-08-07T04:53:49;10.32;;;7.28;;
37203;SDS011;23098;48.054;10.636;2022-08-07T04:56:31;11.02;;;7.20;;
37203;SDS011;23098;48.054;10.636;2022-08-07T04:59:08;10.23;;;7.25;;
37203;SDS011;23098;48.054;10.636;2022-08-07T05:04:45;9.80;;;6.25;;
37203;SDS011;23098;48.054;10.636;2022-08-07T05:07:31;8.27;;;6.30;;
37203;SDS011;23098;48.054;10.636;2022-08-07T05:12:29;9.68;;;6.18;;
37203;SDS011;23098;48.054;10.636;2022-08-07T05:15:10;7.07;;;6.00;;
37203;SDS011;23098;48.054;10.636;2022-08-07T05:17:48;10.15;;;6.10;;
37203;SDS011;23098;48.054;10.636;2022-08-07T05:20:26;8.80;;;6.03;;
37203;SDS011;23098;48.054;10.636;2022-08-07T05:22:58;6.88;;;6.03;;
37203;SDS011;23098;48.054;10.636;2022-08-07T05:25:28;8.87;;;6.53;;
37203;SDS011;23098;48.054;10.636;2022-08-07T05:27:55;9.07;;;6.22;;
37203;SDS011;23098;48.054;10.636;2022-08-07T05:30:22;7.05;;;6.07;;
37203;SDS011;23098;48.054;10.636;2022-08-07T05:32:50;12.02;;;6.40;;
37203;SDS011;23098;48.054;10.636;2022-08-07T05:35:17;9.70;;;6.40;;
37203;SDS011;23098;48.054;10.636;2022-08-07T05:37:44;7.22;;;6.00;;
37203;SDS011;23098;48.054;10.636;2022-08-07T05:40:10;6.43;;;5.75;;
37203;SDS011;23098;48.054;10.636;2022-08-07T05:42:37;7.97;;;5.47;;
37203;SDS011;23098;48.054;10.636;2022-08-07T05:45:06;6.03;;;5.13;;
37203;SDS011;23098;48.054;10.636;2022-08-07T05:47:32;5.43;;;4.93;;
37203;SDS011;23098;48.054;10.636;2022-08-07T05:49:59;5.90;;;4.75;;
37203;SDS011;23098;48.054;10.636;2022-08-07T05:52:26;5.35;;;4.85;;
37203;SDS011;23098;48.054;10.636;2022-08-07T05:54:52;5.65;;;4.97;;
37203;SDS011;23098;48.054;10.636;2022-08-07T05:57:18;7.78;;;5.05;;
37203;SDS011;23098;48.054;10.636;2022-08-07T05:59:44;28.63;;;12.75;;
37203;SDS011;23098;48.054;10.636;2022-08-07T06:02:12;6.05;;;4.88;;
37203;SDS011;23098;48.054;10.636;2022-08-07T06:04:40;5.20;;;4.70;;
37203;SDS011;23098;48.054;10.636;2022-08-07T06:07:09;7.32;;;4.65;;
37203;SDS011;23098;48.054;10.636;2022-08-07T06:09:35;5.05;;;4.30;;
37203;SDS011;23098;48.054;10.636;2022-08-07T06:12:01;7.07;;;4.30;;
37203;SDS011;23098;48.054;10.636;2022-08-07T06:14:28;5.05;;;4.15;;
37203;SDS011;23098;48.054;10.636;2022-08-07T06:16:53;5.13;;;4.10;;
37203;SDS011;23098;48.054;10.636;2022-08-07T06:19:19;5.95;;;4.15;;
37203;SDS011;23098;48.054;10.636;2022-08-07T06:21:58;4.95;;;4.20;;
37203;SDS011;23098;48.054;10.636;2022-08-07T06:24:28;4.50;;;4.10;;
37203;SDS011;23098;48.054;10.636;2022-08-07T06:26:55;7.20;;;4.40;;
37203;SDS011;23098;48.054;10.636;2022-08-07T06:30:15;6.10;;;3.78;;
37203;SDS011;23098;48.054;10.636;2022-08-07T06:32:43;4.82;;;4.00;;
37203;SDS011;23098;48.054;10.636;2022-08-07T06:35:10;5.32;;;3.80;;
37203;SDS011;23098;48.054;10.636;2022-08-07T06:37:39;6.00;;;3.78;;
37203;SDS011;23098;48.054;10.636;2022-08-07T06:40:14;6.22;;;3.90;;
37203;SDS011;23098;48.054;10.636;2022-08-07T06:42:47;3.65;;;3.22;;
37203;SDS011;23098;48.054;10.636;2022-08-07T06:45:38;4.32;;;3.60;;
37203;SDS011;23098;48.054;10.636;2022-08-07T06:48:05;4.50;;;3.10;;
37203;SDS011;23098;48.054;10.636;2022-08-07T06:50:33;7.72;;;3.45;;
37203;SDS011;23098;48.054;10.636;2022-08-07T06:53:11;4.57;;;3.08;;
37203;SDS011;23098;48.054;10.636;2022-08-07T06:55:44;3.97;;;3.50;;
37203;SDS011;23098;48.054;10.636;2022-08-07T06:58:10;5.03;;;3.00;;
37203;SDS011;23098;48.054;10.636;2022-08-07T07:00:40;4.43;;;3.20;;
37203;SDS011;23098;48.054;10.636;2022-08-07T07:03:08;4.32;;;3.00;;
37203;SDS011;23098;48.054;10.636;2022-08-07T07:05:36;7.13;;;3.03;;
37203;SDS011;23098;48.054;10.636;2022-08-07T07:08:04;3.70;;;3.40;;
37203;SDS011;23098;48.054;10.636;2022-08-07T07:10:36;3.38;;;3.08;;
37203;SDS011;23098;48.054;10.636;2022-08-07T07:13:06;3.65;;;3.08;;
37203;SDS011;23098;48.054;10.636;2022-08-07T07:15:40;3.53;;;3.10;;
37203;SDS011;23098;48.054;10.636;2022-08-07T07:18:17;4.35;;;3.25;;
37203;SDS011;23098;48.054;10.636;2022-08-07T07:21:05;4.85;;;3.60;;
37203;SDS011;23098;48.054;10.636;2022-08-07T07:23:50;5.20;;;3.70;;
37203;SDS011;23098;48.054;10.636;2022-08-07T07:29:00;3.28;;;2.90;;
37203;SDS011;23098;48.054;10.636;2022-08-07T07:31:33;4.53;;;3.47;;
37203;SDS011;23098;48.054;10.636;2022-08-07T07:34:05;8.93;;;3.00;;
37203;SDS011;23098;48.054;10.636;2022-08-07T07:36:34;5.30;;;3.30;;
37203;SDS011;23098;48.054;10.636;2022-08-07T07:39:03;3.63;;;3.00;;
37203;SDS011;23098;48.054;10.636;2022-08-07T07:41:30;3.95;;;3.22;;
37203;SDS011;23098;48.054;10.636;2022-08-07T07:43:59;4.00;;;2.97;;
37203;SDS011;23098;48.054;10.636;2022-08-07T07:46:27;5.72;;;3.40;;
37203;SDS011;23098;48.054;10.636;2022-08-07T07:48:54;4.75;;;3.28;;
37203;SDS011;23098;48.054;10.636;2022-08-07T07:53:52;4.22;;;2.83;;
37203;SDS011;23098;48.054;10.636;2022-08-07T07:56:21;3.55;;;2.80;;
37203;SDS011;23098;48.054;10.636;2022-08-07T07:58:48;3.90;;;2.80;;
37203;SDS011;23098;48.054;10.636;2022-08-07T08:01:15;4.55;;;2.67;;
37203;SDS011;23098;48.054;10.636;2022-08-07T08:08:59;4.25;;;3.17;;
37203;SDS011;23098;48.054;10.636;2022-08-07T08:11:37;3.70;;;3.00;;
37203;SDS011;23098;48.054;10.636;2022-08-07T08:14:04;3.85;;;2.65;;
37203;SDS011;23098;48.054;10.636;2022-08-07T08:22:32;3.80;;;2.38;;
37203;SDS011;23098;48.054;10.636;2022-08-07T08:25:20;3.55;;;2.30;;
37203;SDS011;23098;48.054;10.636;2022-08-07T08:28:04;4.03;;;2.95;;
37203;SDS011;23098;48.054;10.636;2022-08-07T08:30:33;3.03;;;2.72;;
37203;SDS011;23098;48.054;10.636;2022-08-07T08:33:00;3.70;;;2.75;;
37203;SDS011;23098;48.054;10.636;2022-08-07T08:35:29;3.67;;;2.70;;
37203;SDS011;23098;48.054;10.636;2022-08-07T08:37:58;4.13;;;2.70;;
37203;SDS011;23098;48.054;10.636;2022-08-07T08:40:31;4.40;;;2.33;;
37203;SDS011;23098;48.054;10.636;2022-08-07T08:43:13;4.57;;;2.78;;
37203;SDS011;23098;48.054;10.636;2022-08-07T08:48:20;3.08;;;2.65;;
37203;SDS011;23098;48.054;10.636;2022-08-07T08:50:59;3.10;;;2.50;;
37203;SDS011;23098;48.054;10.636;2022-08-07T08:53:31;5.15;;;2.97;;
37203;SDS011;23098;48.054;10.636;2022-08-07T08:56:03;3.83;;;2.67;;
37203;SDS011;23098;48.054;10.636;2022-08-07T09:01:04;4.85;;;3.03;;
37203;SDS011;23098;48.054;10.636;2022-08-07T09:03:43;5.72;;;3.28;;
37203;SDS011;23098;48.054;10.636;2022-08-07T09:06:25;7.03;;;4.68;;
37203;SDS011;23098;48.054;10.636;2022-08-07T09:17:39;6.03;;;3.65;;
37203;SDS011;23098;48.054;10.636;2022-08-07T09:26:27;4.70;;;3.97;;
37203;SDS011;23098;48.054;10.636;2022-08-07T09:32:20;3.22;;;2.92;;
37203;SDS011;23098;48.054;10.636;2022-08-07T09:37:35;3.63;;;3.13;;
37203;SDS011;23098;48.054;10.636;2022-08-07T09:42:49;3.88;;;2.83;;
37203;SDS011;23098;48.054;10.636;2022-08-07T09:54:12;3.75;;;2.95;;
37203;SDS011;23098;48.054;10.636;2022-08-07T10:00:23;5.43;;;2.67;;
37203;SDS011;23098;48.054;10.636;2022-08-07T10:02:36;3.53;;;2.92;;
37203;SDS011;23098;48.054;10.636;2022-08-07T10:07:55;2.47;;;2.28;;
37203;SDS011;23098;48.054;10.636;2022-08-07T10:13:43;4.57;;;2.75;;
37203;SDS011;23098;48.054;10.636;2022-08-07T10:19:13;3.88;;;2.60;;
37203;SDS011;23098;48.054;10.636;2022-08-07T10:27:31;3.10;;;2.70;;
37203;SDS011;23098;48.054;10.636;2022-08-07T10:33:13;3.17;;;2.72;;
37203;SDS011;23098;48.054;10.636;2022-08-07T10:41:43;3.42;;;2.13;;
37203;SDS011;23098;48.054;10.636;2022-08-07T10:44:23;5.35;;;2.60;;
37203;SDS011;23098;48.054;10.636;2022-08-07T10:49:46;3.92;;;2.50;;
37203;SDS011;23098;48.054;10.636;2022-08-07T10:52:36;3.25;;;1.92;;
37203;SDS011;23098;48.054;10.636;2022-08-07T10:55:13;2.30;;;2.10;;
37203;SDS011;23098;48.054;10.636;2022-08-07T11:00:55;1.92;;;1.83;;
37203;SDS011;23098;48.054;10.636;2022-08-07T11:03:47;2.13;;;1.88;;
37203;SDS011;23098;48.054;10.636;2022-08-07T11:06:28;2.25;;;2.00;;
37203;SDS011;23098;48.054;10.636;2022-08-07T11:09:02;3.00;;;2.20;;
37203;SDS011;23098;48.054;10.636;2022-08-07T11:14:46;2.25;;;2.00;;
37203;SDS011;23098;48.054;10.636;2022-08-07T11:17:20;4.15;;;1.83;;
37203;SDS011;23098;48.054;10.636;2022-08-07T11:19:55;7.18;;;2.25;;
37203;SDS011;23098;48.054;10.636;2022-08-07T11:22:24;3.15;;;2.05;;
37203;SDS011;23098;48.054;10.636;2022-08-07T11:27:37;4.70;;;2.00;;
37203;SDS011;23098;48.054;10.636;2022-08-07T11:30:24;3.08;;;2.15;;
37203;SDS011;23098;48.054;10.636;2022-08-07T11:33:05;5.47;;;2.30;;
37203;SDS011;23098;48.054;10.636;2022-08-07T11:35:34;2.72;;;1.92;;
37203;SDS011;23098;48.054;10.636;2022-08-07T11:38:19;2.10;;;1.90;;
37203;SDS011;23098;48.054;10.636;2022-08-07T11:40:58;3.85;;;2.10;;
37203;SDS011;23098;48.054;10.636;2022-08-07T11:43:31;4.45;;;2.05;;
37203;SDS011;23098;48.054;10.636;2022-08-07T11:46:10;2.50;;;1.92;;
37203;SDS011;23098;48.054;10.636;2022-08-07T11:49:05;2.28;;;1.85;;
37203;SDS011;23098;48.054;10.636;2022-08-07T12:00:06;2.28;;;1.60;;
37203;SDS011;23098;48.054;10.636;2022-08-07T12:02:48;2.05;;;1.60;;
37203;SDS011;23098;48.054;10.636;2022-08-07T12:13:23;3.38;;;2.05;;
37203;SDS011;23098;48.054;10.636;2022-08-07T12:16:01;2.10;;;1.70;;
37203;SDS011;23098;48.054;10.636;2022-08-07T12:18:34;2.55;;;1.88;;
37203;SDS011;23098;48.054;10.636;2022-08-07T12:21:19;1.73;;;1.60;;
37203;SDS011;23098;48.054;10.636;2022-08-07T12:24:07;3.13;;;1.92;;
37203;SDS011;23098;48.054;10.636;2022-08-07T12:32:33;2.20;;;2.00;;
37203;SDS011;23098;48.054;10.636;2022-08-07T12:35:23;3.85;;;2.00;;
37203;SDS011;23098;48.054;10.636;2022-08-07T12:37:55;2.47;;;1.70;;
37203;SDS011;23098;48.054;10.636;2022-08-07T12:40:27;2.90;;;1.70;;
37203;SDS011;23098;48.054;10.636;2022-08-07T12:42:55;2.28;;;1.70;;
37203;SDS011;23098;48.054;10.636;2022-08-07T12:45:27;3.20;;;1.85;;
37203;SDS011;23098;48.054;10.636;2022-08-07T12:48:01;1.85;;;1.63;;
37203;SDS011;23098;48.054;10.636;2022-08-07T12:51:10;2.95;;;1.60;;
37203;SDS011;23098;48.054;10.636;2022-08-07T12:53:48;2.65;;;1.83;;
37203;SDS011;23098;48.054;10.636;2022-08-07T12:58:56;3.25;;;1.58;;
37203;SDS011;23098;48.054;10.636;2022-08-07T13:04:03;2.28;;;1.55;;
37203;SDS011;23098;48.054;10.636;2022-08-07T13:21:36;2.38;;;1.60;;
37203;SDS011;23098;48.054;10.636;2022-08-07T13:24:55;1.95;;;1.63;;
37203;SDS011;23098;48.054;10.636;2022-08-07T13:38:22;2.17;;;1.52;;
37203;SDS011;23098;48.054;10.636;2022-08-07T13:43:30;2.50;;;1.80;;
37203;SDS011;23098;48.054;10.636;2022-08-07T13:45:59;2.17;;;1.50;;
37203;SDS011;23098;48.054;10.636;2022-08-07T13:48:27;2.55;;;1.70;;
37203;SDS011;23098;48.054;10.636;2022-08-07T13:50:55;2.13;;;1.73;;
37203;SDS011;23098;48.054;10.636;2022-08-07T13:53:25;2.38;;;1.60;;
37203;SDS011;23098;48.054;10.636;2022-08-07T13:56:00;2.25;;;1.58;;
37203;SDS011;23098;48.054;10.636;2022-08-07T13:58:29;2.20;;;1.50;;
37203;SDS011;23098;48.054;10.636;2022-08-07T14:01:19;4.65;;;1.63;;
37203;SDS011;23098;48.054;10.636;2022-08-07T14:03:48;2.22;;;1.70;;
37203;SDS011;23098;48.054;10.636;2022-08-07T14:06:14;3.53;;;1.75;;
37203;SDS011;23098;48.054;10.636;2022-08-07T14:08:46;2.72;;;1.40;;
37203;SDS011;23098;48.054;10.636;2022-08-07T14:11:15;3.08;;;1.42;;
37203;SDS011;23098;48.054;10.636;2022-08-07T14:13:49;2.17;;;1.20;;
37203;SDS011;23098;48.054;10.636;2022-08-07T14:16:32;2.10;;;1.80;;
37203;SDS011;23098;48.054;10.636;2022-08-07T14:19:02;2.53;;;1.80;;
37203;SDS011;23098;48.054;10.636;2022-08-07T14:21:38;2.30;;;1.50;;
37203;SDS011;23098;48.054;10.636;2022-08-07T14:24:08;3.13;;;1.60;;
37203;SDS011;23098;48.054;10.636;2022-08-07T14:26:50;2.33;;;1.60;;
37203;SDS011;23098;48.054;10.636;2022-08-07T14:29:22;1.75;;;1.60;;
37203;SDS011;23098;48.054;10.636;2022-08-07T14:31:56;2.40;;;1.52;;
37203;SDS011;23098;48.054;10.636;2022-08-07T14:34:26;2.00;;;1.60;;
37203;SDS011;23098;48.054;10.636;2022-08-07T14:36:54;1.65;;;1.52;;
37203;SDS011;23098;48.054;10.636;2022-08-07T14:39:20;2.22;;;1.50;;
37203;SDS011;23098;48.054;10.636;2022-08-07T14:41:48;2.00;;;1.75;;
37203;SDS011;23098;48.054;10.636;2022-08-07T14:44:15;2.95;;;1.67;;
37203;SDS011;23098;48.054;10.636;2022-08-07T14:46:41;3.05;;;1.80;;
37203;SDS011;23098;48.054;10.636;2022-08-07T14:49:08;1.80;;;1.55;;
37203;SDS011;23098;48.054;10.636;2022-08-07T14:51:35;1.92;;;1.40;;
37203;SDS011;23098;48.054;10.636;2022-08-07T14:54:06;2.58;;;1.60;;
37203;SDS011;23098;48.054;10.636;2022-08-07T14:56:35;2.90;;;1.50;;
37203;SDS011;23098;48.054;10.636;2022-08-07T14:59:05;2.38;;;1.73;;
37203;SDS011;23098;48.054;10.636;2022-08-07T15:01:36;2.15;;;1.50;;
37203;SDS011;23098;48.054;10.636;2022-08-07T15:04:05;1.70;;;1.60;;
37203;SDS011;23098;48.054;10.636;2022-08-07T15:06:33;4.43;;;1.85;;
37203;SDS011;23098;48.054;10.636;2022-08-07T15:09:12;1.90;;;1.80;;
37203;SDS011;23098;48.054;10.636;2022-08-07T15:12:04;1.60;;;1.40;;
37203;SDS011;23098;48.054;10.636;2022-08-07T15:14:35;2.45;;;1.50;;
37203;SDS011;23098;48.054;10.636;2022-08-07T15:17:13;3.58;;;1.75;;
37203;SDS011;23098;48.054;10.636;2022-08-07T15:19:50;2.20;;;1.75;;
37203;SDS011;23098;48.054;10.636;2022-08-07T15:25:10;1.98;;;1.70;;
37203;SDS011;23098;48.054;10.636;2022-08-07T15:27:39;2.83;;;1.50;;
37203;SDS011;23098;48.054;10.636;2022-08-07T15:30:06;2.85;;;1.70;;
37203;SDS011;23098;48.054;10.636;2022-08-07T15:32:38;2.33;;;1.75;;
37203;SDS011;23098;48.054;10.636;2022-08-07T15:35:14;3.97;;;1.83;;
37203;SDS011;23098;48.054;10.636;2022-08-07T15:37:41;2.03;;;1.50;;
37203;SDS011;23098;48.054;10.636;2022-08-07T15:40:13;2.30;;;1.35;;
37203;SDS011;23098;48.054;10.636;2022-08-07T15:45:13;2.38;;;1.40;;
37203;SDS011;23098;48.054;10.636;2022-08-07T15:47:56;2.72;;;1.50;;
37203;SDS011;23098;48.054;10.636;2022-08-07T15:50:26;2.92;;;1.50;;
37203;SDS011;23098;48.054;10.636;2022-08-07T15:53:03;1.50;;;1.40;;
37203;SDS011;23098;48.054;10.636;2022-08-07T15:55:33;3.00;;;1.67;;
37203;SDS011;23098;48.054;10.636;2022-08-07T15:58:00;1.58;;;1.42;;
37203;SDS011;23098;48.054;10.636;2022-08-07T16:00:30;1.60;;;1.50;;
37203;SDS011;23098;48.054;10.636;2022-08-07T16:03:00;1.67;;;1.48;;
37203;SDS011;23098;48.054;10.636;2022-08-07T16:05:34;4.22;;;1.30;;
37203;SDS011;23098;48.054;10.636;2022-08-07T16:08:03;2.30;;;1.60;;
37203;SDS011;23098;48.054;10.636;2022-08-07T16:10:36;1.98;;;1.45;;
37203;SDS011;23098;48.054;10.636;2022-08-07T16:15:52;2.00;;;1.60;;
37203;SDS011;23098;48.054;10.636;2022-08-07T16:18:43;1.50;;;1.40;;
37203;SDS011;23098;48.054;10.636;2022-08-07T16:21:41;1.90;;;1.25;;
37203;SDS011;23098;48.054;10.636;2022-08-07T16:26:48;2.90;;;1.40;;
37203;SDS011;23098;48.054;10.636;2022-08-07T16:32:00;2.45;;;1.40;;
37203;SDS011;23098;48.054;10.636;2022-08-07T16:34:35;1.30;;;1.20;;
37203;SDS011;23098;48.054;10.636;2022-08-07T16:42:58;4.50;;;1.30;;
37203;SDS011;23098;48.054;10.636;2022-08-07T17:04:35;2.45;;;1.25;;
37203;SDS011;23098;48.054;10.636;2022-08-07T17:10:18;1.50;;;1.30;;
37203;SDS011;23098;48.054;10.636;2022-08-07T17:15:38;2.95;;;1.30;;
37203;SDS011;23098;48.054;10.636;2022-08-07T17:20:53;1.85;;;1.30;;
37203;SDS011;23098;48.054;10.636;2022-08-07T17:28:34;1.77;;;1.38;;
37203;SDS011;23098;48.054;10.636;2022-08-07T17:31:22;2.13;;;1.50;;
37203;SDS011;23098;48.054;10.636;2022-08-07T17:36:41;2.33;;;1.20;;
37203;SDS011;23098;48.054;10.636;2022-08-07T17:39:13;1.95;;;1.70;;
37203;SDS011;23098;48.054;10.636;2022-08-07T17:41:46;2.72;;;1.30;;
37203;SDS011;23098;48.054;10.636;2022-08-07T17:46:55;1.98;;;1.73;;
37203;SDS011;23098;48.054;10.636;2022-08-07T17:51:55;2.35;;;1.50;;
37203;SDS011;23098;48.054;10.636;2022-08-07T17:54:23;2.30;;;1.67;;
37203;SDS011;23098;48.054;10.636;2022-08-07T17:57:20;2.63;;;1.50;;
37203;SDS011;23098;48.054;10.636;2022-08-07T17:59:51;1.80;;;1.58;;
37203;SDS011;23098;48.054;10.636;2022-08-07T18:02:27;2.00;;;1.50;;
37203;SDS011;23098;48.054;10.636;2022-08-07T18:08:02;1.58;;;1.48;;
37203;SDS011;23098;48.054;10.636;2022-08-07T18:16:11;2.20;;;1.80;;
37203;SDS011;23098;48.054;10.636;2022-08-07T18:18:46;3.67;;;1.80;;
37203;SDS011;23098;48.054;10.636;2022-08-07T18:21:15;1.67;;;1.58;;
37203;SDS011;23098;48.054;10.636;2022-08-07T18:23:56;5.22;;;2.03;;
37203;SDS011;23098;48.054;10.636;2022-08-07T18:29:23;3.08;;;1.60;;
37203;SDS011;23098;48.054;10.636;2022-08-07T18:32:02;2.10;;;1.80;;
37203;SDS011;23098;48.054;10.636;2022-08-07T18:38:14;2.03;;;1.80;;
37203;SDS011;23098;48.054;10.636;2022-08-07T18:43:48;3.25;;;1.90;;
37203;SDS011;23098;48.054;10.636;2022-08-07T18:46:49;3.38;;;2.08;;